createdAt,value
2022-11-24T00:01:17.774Z,-0.40
2022-11-24T00:03:46.366Z,-0.40
2022-11-24T00:06:15.092Z,-0.50
2022-11-24T00:08:44.284Z,-0.60
2022-11-24T00:11:17.149Z,-0.70
2022-11-24T00:13:44.836Z,-0.60
2022-11-24T00:16:17.058Z,-0.60
2022-11-24T00:18:48.732Z,-0.50
2022-11-24T00:21:18.029Z,-0.40
2022-11-24T00:23:48.908Z,-0.50
2022-11-24T00:26:19.094Z,-0.50
2022-11-24T00:28:47.889Z,-0.50
2022-11-24T00:31:32.189Z,-0.40
2022-11-24T00:34:01.536Z,-0.40
2022-11-24T00:36:30.713Z,-0.40
2022-11-24T00:39:00.082Z,-0.50
2022-11-24T00:41:27.929Z,-0.50
2022-11-24T00:43:55.552Z,-0.60
2022-11-24T00:46:23.432Z,-0.50
2022-11-24T00:48:51.043Z,-0.60
2022-11-24T00:51:19.514Z,-0.50
2022-11-24T00:53:46.366Z,-0.50
2022-11-24T00:56:13.280Z,-0.50
2022-11-24T00:58:40.551Z,-0.60
2022-11-24T01:01:10.935Z,-0.50
2022-11-24T01:03:37.928Z,-0.50
2022-11-24T01:06:13.653Z,-0.60
2022-11-24T01:08:41.737Z,-0.50
2022-11-24T01:11:17.648Z,-0.60
2022-11-24T01:13:47.239Z,-0.60
2022-11-24T01:16:27.739Z,-0.50
2022-11-24T01:18:54.791Z,-0.50
2022-11-24T01:21:22.295Z,-0.50
2022-11-24T01:23:49.245Z,-0.40
2022-11-24T01:26:19.173Z,-0.40
2022-11-24T01:28:47.696Z,-0.40
2022-11-24T01:31:16.192Z,-0.40
2022-11-24T01:33:43.267Z,-0.40
2022-11-24T01:36:10.266Z,-0.40
2022-11-24T01:38:37.163Z,-0.50
2022-11-24T01:41:12.873Z,-0.50
2022-11-24T01:43:40.956Z,-0.50
2022-11-24T01:46:32.315Z,-0.50
2022-11-24T01:49:22.658Z,-0.50
2022-11-24T01:52:01.203Z,-0.60
2022-11-24T01:54:30.071Z,-0.70
2022-11-24T01:57:02.510Z,-0.70
2022-11-24T01:59:32.550Z,-0.70
2022-11-24T02:01:59.579Z,-0.80
2022-11-24T02:04:30.457Z,-0.70
2022-11-24T02:06:59.981Z,-0.80
2022-11-24T02:09:42.963Z,-0.70
2022-11-24T02:12:10.340Z,-0.60
2022-11-24T02:14:39.521Z,-0.60
2022-11-24T02:17:07.394Z,-0.50
2022-11-24T02:19:40.336Z,-0.60
2022-11-24T02:22:44.735Z,-0.60
2022-11-24T02:25:39.703Z,-0.50
2022-11-24T02:28:12.202Z,-0.60
2022-11-24T02:30:41.040Z,-0.60
2022-11-24T02:33:08.271Z,-0.60
2022-11-24T02:35:35.244Z,-0.60
2022-11-24T02:38:02.087Z,-0.60
2022-11-24T02:40:31.084Z,-0.60
2022-11-24T02:43:06.813Z,-0.60
2022-11-24T02:45:33.820Z,-0.60
2022-11-24T02:48:00.858Z,-0.60
2022-11-24T02:50:27.796Z,-0.50
2022-11-24T02:52:54.656Z,-0.60
2022-11-24T02:55:21.610Z,-0.50
2022-11-24T02:57:48.499Z,-0.50
2022-11-24T03:00:16.384Z,-0.50
2022-11-24T03:02:43.372Z,-0.50
2022-11-24T03:05:12.088Z,-0.50
2022-11-24T03:07:39.089Z,-0.40
2022-11-24T03:10:06.785Z,-0.50
2022-11-24T03:12:33.677Z,-0.40
2022-11-24T03:15:00.642Z,-0.40
2022-11-24T03:17:27.533Z,-0.40
2022-11-24T03:19:54.477Z,-0.40
2022-11-24T03:22:23.775Z,-0.40
2022-11-24T03:24:50.669Z,-0.40
2022-11-24T03:27:17.636Z,-0.40
2022-11-24T03:29:44.507Z,-0.30
2022-11-24T03:32:11.314Z,-0.40
2022-11-24T03:34:38.162Z,-0.30
2022-11-24T03:37:05.104Z,-0.40
2022-11-24T03:39:32.004Z,-0.40
2022-11-24T03:41:58.826Z,-0.50
2022-11-24T03:44:25.753Z,-0.40
2022-11-24T03:46:52.666Z,-0.40
2022-11-24T03:49:21.632Z,-0.50
2022-11-24T03:51:48.575Z,-0.40
2022-11-24T03:54:15.610Z,-0.50
2022-11-24T03:56:42.848Z,-0.50
2022-11-24T03:59:09.660Z,-0.50
2022-11-24T04:01:36.553Z,-0.40
2022-11-24T04:04:03.530Z,-0.30
2022-11-24T04:06:30.517Z,-0.30
2022-11-24T04:08:57.502Z,-0.30
2022-11-24T04:11:57.687Z,-0.20
2022-11-24T04:14:24.524Z,-0.20
2022-11-24T04:16:51.362Z,-0.20
2022-11-24T04:19:18.186Z,-0.30
2022-11-24T04:21:45.031Z,-0.30
2022-11-24T04:24:12.035Z,-0.30
2022-11-24T04:26:38.918Z,-0.30
2022-11-24T04:29:05.918Z,-0.30
2022-11-24T04:31:35.455Z,-0.40
2022-11-24T04:34:02.336Z,-0.30
2022-11-24T04:36:29.176Z,-0.30
2022-11-24T04:39:23.290Z,-0.30
2022-11-24T04:41:43.049Z,-0.30
2022-11-24T04:44:09.947Z,-0.30
2022-11-24T04:46:37.077Z,-0.30
2022-11-24T04:49:04.034Z,-0.30
2022-11-24T04:51:30.924Z,-0.30
2022-11-24T04:53:57.848Z,-0.30
2022-11-24T04:56:24.793Z,-0.30
2022-11-24T04:58:51.700Z,-0.30
2022-11-24T05:01:18.576Z,-0.40
2022-11-24T05:03:45.547Z,-0.30
2022-11-24T05:06:12.469Z,-0.40
2022-11-24T05:08:39.290Z,-0.40
2022-11-24T05:11:07.145Z,-0.40
2022-11-24T05:13:34.087Z,-0.30
2022-11-24T05:16:01.738Z,-0.50
2022-11-24T05:18:28.964Z,-0.40
2022-11-24T05:20:56.218Z,-0.30
2022-11-24T05:23:23.031Z,-0.40
2022-11-24T05:25:49.840Z,-0.30
2022-11-24T05:28:16.915Z,-0.20
2022-11-24T05:30:44.146Z,-0.30
2022-11-24T05:33:23.139Z,-0.30
2022-11-24T05:35:50.697Z,-0.30
2022-11-24T05:38:18.534Z,-0.30
2022-11-24T05:40:45.788Z,-0.40
2022-11-24T05:43:17.462Z,-0.40
2022-11-24T05:45:44.965Z,-0.30
2022-11-24T05:48:14.578Z,-0.30
2022-11-24T05:50:41.391Z,-0.30
2022-11-24T05:53:11.072Z,-0.40
2022-11-24T05:55:38.263Z,-0.30
2022-11-24T05:58:09.515Z,-0.30
2022-11-24T06:00:36.979Z,-0.30
2022-11-24T06:03:04.042Z,-0.20
2022-11-24T06:05:31.231Z,-0.20
2022-11-24T06:08:00.291Z,-0.20
2022-11-24T06:10:27.499Z,-0.20
2022-11-24T06:12:54.325Z,-0.10
2022-11-24T06:15:21.659Z,-0.30
2022-11-24T06:17:56.835Z,-0.20
2022-11-24T06:20:32.471Z,-0.10
2022-11-24T06:23:00.117Z,-0.10
2022-11-24T06:25:27.792Z,-0.10
2022-11-24T06:27:54.979Z,-0.10
2022-11-24T06:30:21.790Z,-0.10
2022-11-24T06:32:50.039Z,0.00
2022-11-24T06:35:17.509Z,0.00
2022-11-24T06:37:45.719Z,0.00
2022-11-24T06:40:12.880Z,0.00
2022-11-24T06:42:39.661Z,0.00
2022-11-24T06:45:09.345Z,0.00
2022-11-24T06:47:37.457Z,0.00
2022-11-24T06:50:05.072Z,0.00
2022-11-24T06:52:31.854Z,0.00
2022-11-24T06:54:58.686Z,0.00
2022-11-24T06:57:26.326Z,0.10
2022-11-24T06:59:53.151Z,0.00
2022-11-24T07:02:19.943Z,0.00
2022-11-24T07:04:46.745Z,0.00
2022-11-24T07:07:13.704Z,0.00
2022-11-24T07:09:40.527Z,0.00
2022-11-24T07:12:07.648Z,0.00
2022-11-24T07:14:34.703Z,0.10
2022-11-24T07:17:02.686Z,0.00
2022-11-24T07:19:29.676Z,0.00
2022-11-24T07:21:57.552Z,0.00
2022-11-24T07:24:24.445Z,0.10
2022-11-24T07:26:51.363Z,0.00
2022-11-24T07:29:18.338Z,0.10
2022-11-24T07:31:46.143Z,0.00
2022-11-24T07:34:15.637Z,0.00
2022-11-24T07:36:43.029Z,0.00
2022-11-24T07:39:10.005Z,0.10
2022-11-24T07:41:36.890Z,0.10
2022-11-24T07:44:04.022Z,0.00
2022-11-24T07:46:30.890Z,-0.10
2022-11-24T07:48:57.775Z,0.00
2022-11-24T07:51:24.712Z,-0.10
2022-11-24T07:53:51.499Z,-0.10
2022-11-24T07:56:18.384Z,-0.10
2022-11-24T07:58:49.671Z,-0.10
2022-11-24T08:01:20.013Z,-0.10
2022-11-24T08:03:47.206Z,0.00
2022-11-24T08:06:24.988Z,0.00
2022-11-24T08:08:53.260Z,0.10
2022-11-24T08:11:20.300Z,0.20
2022-11-24T08:13:47.266Z,0.20
2022-11-24T08:16:16.980Z,0.30
2022-11-24T08:18:48.535Z,0.20
2022-11-24T08:21:15.459Z,0.20
2022-11-24T08:23:42.736Z,0.20
2022-11-24T08:26:16.087Z,0.20
2022-11-24T08:28:46.016Z,0.30
2022-11-24T08:31:16.003Z,0.30
2022-11-24T08:33:43.570Z,0.40
2022-11-24T08:36:13.383Z,0.20
2022-11-24T08:38:40.880Z,0.30
2022-11-24T08:41:11.008Z,0.10
2022-11-24T08:43:38.577Z,0.20
2022-11-24T08:46:08.468Z,0.20
2022-11-24T08:48:36.204Z,0.40
2022-11-24T08:51:15.568Z,0.30
2022-11-24T08:53:43.532Z,0.40
2022-11-24T08:56:11.893Z,0.40
2022-11-24T08:58:41.800Z,0.50
2022-11-24T09:01:12.389Z,0.50
2022-11-24T09:03:46.342Z,0.50
2022-11-24T09:06:19.008Z,0.60
2022-11-24T09:08:46.136Z,0.50
2022-11-24T09:11:15.311Z,0.50
2022-11-24T09:13:43.371Z,0.50
2022-11-24T09:16:13.662Z,0.50
2022-11-24T09:18:40.828Z,0.50
2022-11-24T09:21:19.744Z,0.60
2022-11-24T09:23:49.042Z,0.60
2022-11-24T09:26:18.862Z,0.50
2022-11-24T09:28:48.993Z,0.60
2022-11-24T09:31:18.069Z,0.70
2022-11-24T09:33:45.483Z,0.70
2022-11-24T09:36:13.139Z,0.60
2022-11-24T09:38:42.369Z,0.60
2022-11-24T09:41:18.231Z,0.60
2022-11-24T09:44:06.408Z,0.80
2022-11-24T09:46:41.210Z,0.80
2022-11-24T09:49:14.677Z,0.80
2022-11-24T09:51:45.472Z,0.80
2022-11-24T09:54:18.726Z,0.80
2022-11-24T09:56:46.968Z,0.90
2022-11-24T09:59:22.553Z,0.80
2022-11-24T10:01:51.678Z,0.70
2022-11-24T10:04:25.962Z,0.80
2022-11-24T10:07:01.657Z,0.80
2022-11-24T10:09:48.887Z,0.80
2022-11-24T10:12:27.917Z,0.80
2022-11-24T10:14:57.869Z,0.90
2022-11-24T10:17:56.716Z,0.80
2022-11-24T10:20:41.162Z,0.70
2022-11-24T10:23:39.814Z,0.70
2022-11-24T10:26:39.471Z,0.50
2022-11-24T10:29:26.260Z,0.60
2022-11-24T10:31:56.464Z,0.60
2022-11-24T10:34:27.502Z,0.60
2022-11-24T10:37:26.394Z,0.70
2022-11-24T10:40:26.923Z,0.70
2022-11-24T10:42:58.299Z,0.80
2022-11-24T10:45:27.583Z,0.70
2022-11-24T10:47:54.640Z,0.60
2022-11-24T10:50:23.107Z,0.60
2022-11-24T10:53:19.246Z,0.60
2022-11-24T10:55:55.377Z,0.70
2022-11-24T10:58:26.894Z,0.90
2022-11-24T11:00:54.867Z,0.90
2022-11-24T11:03:27.235Z,0.90
2022-11-24T11:05:59.117Z,0.90
2022-11-24T11:08:33.874Z,0.90
2022-11-24T11:11:27.438Z,0.90
2022-11-24T11:14:02.915Z,1.00
2022-11-24T11:16:31.097Z,1.10
2022-11-24T11:18:58.457Z,0.90
2022-11-24T11:21:41.065Z,1.10
2022-11-24T11:24:17.023Z,1.00
2022-11-24T11:26:44.177Z,1.10
2022-11-24T11:35:13.657Z,0.80
2022-11-24T11:37:41.561Z,0.80
2022-11-24T11:40:16.931Z,0.80
2022-11-24T11:43:16.149Z,0.80
2022-11-24T11:45:46.261Z,0.80
2022-11-24T11:48:27.744Z,0.80
2022-11-24T11:51:23.369Z,0.80
2022-11-24T11:54:31.968Z,0.80
2022-11-24T11:57:07.109Z,0.70
2022-11-24T11:59:59.128Z,0.70
2022-11-24T12:02:59.778Z,0.70
2022-11-24T12:05:50.774Z,0.70
2022-11-24T12:09:19.159Z,0.70
2022-11-24T12:12:12.560Z,0.70
2022-11-24T12:15:10.754Z,0.60
2022-11-24T12:17:47.588Z,0.60
2022-11-24T12:20:28.548Z,0.60
2022-11-24T12:23:04.197Z,0.60
2022-11-24T12:25:57.145Z,0.70
2022-11-24T12:28:24.193Z,0.80
2022-11-24T12:31:14.516Z,0.90
2022-11-24T12:34:11.151Z,0.80
2022-11-24T12:37:15.726Z,0.80
2022-11-24T12:40:04.114Z,0.90
2022-11-24T12:43:00.822Z,0.90
2022-11-24T12:45:50.226Z,0.90
2022-11-24T12:48:26.517Z,0.90
2022-11-24T12:50:55.809Z,0.80
2022-11-24T12:53:27.230Z,0.80
2022-11-24T12:55:57.269Z,0.90
2022-11-24T12:58:58.217Z,0.80
2022-11-24T13:01:53.641Z,0.80
2022-11-24T13:04:49.783Z,0.80
2022-11-24T13:07:35.601Z,0.80
2022-11-24T13:10:57.957Z,0.80
2022-11-24T13:13:32.469Z,0.80
2022-11-24T13:18:52.658Z,0.90
2022-11-24T13:21:31.458Z,0.80
2022-11-24T13:24:01.375Z,0.80
2022-11-24T13:26:43.650Z,0.90
2022-11-24T13:29:28.935Z,0.90
2022-11-24T13:32:02.507Z,0.90
2022-11-24T13:34:42.747Z,0.80
2022-11-24T13:37:34.449Z,0.90
2022-11-24T13:40:22.992Z,0.90
2022-11-24T13:42:56.471Z,1.00
2022-11-24T13:45:42.502Z,0.90
2022-11-24T13:48:22.763Z,0.80
2022-11-24T13:50:49.794Z,0.80
2022-11-24T13:53:32.164Z,0.90
2022-11-24T13:56:03.316Z,0.80
2022-11-24T13:58:39.346Z,0.80
2022-11-24T14:01:17.601Z,0.70
2022-11-24T14:04:35.278Z,0.70
2022-11-24T14:07:09.154Z,0.70
2022-11-24T14:09:54.359Z,0.60
2022-11-24T14:12:23.836Z,0.80
2022-11-24T14:14:52.733Z,0.70
2022-11-24T14:17:23.150Z,0.70
2022-11-24T14:19:55.549Z,0.60
2022-11-24T14:22:26.564Z,0.60
2022-11-24T14:24:56.798Z,0.70
2022-11-24T14:27:29.996Z,0.80
2022-11-24T14:30:00.592Z,0.70
2022-11-24T14:32:28.129Z,0.70
2022-11-24T14:34:55.699Z,0.70
2022-11-24T14:37:24.838Z,0.60
2022-11-24T14:39:52.270Z,0.60
2022-11-24T14:42:22.244Z,0.60
2022-11-24T14:44:59.028Z,0.60
2022-11-24T14:47:33.004Z,0.60
2022-11-24T14:50:13.835Z,0.50
2022-11-24T14:52:59.827Z,0.50
2022-11-24T14:55:28.725Z,0.60
2022-11-24T14:57:59.051Z,0.50
2022-11-24T15:00:33.045Z,0.50
2022-11-24T15:03:05.910Z,0.50
2022-11-24T15:05:59.423Z,0.50
2022-11-24T15:08:31.606Z,0.50
2022-11-24T15:11:12.042Z,0.50
2022-11-24T15:13:53.633Z,0.50
2022-11-24T15:16:25.040Z,0.50
2022-11-24T15:22:33.620Z,0.60
2022-11-24T15:25:37.710Z,0.60
2022-11-24T15:28:33.126Z,0.60
2022-11-24T15:31:08.016Z,0.60
2022-11-24T15:33:58.177Z,0.60
2022-11-24T15:37:07.019Z,0.60
2022-11-24T15:39:46.855Z,0.50
2022-11-24T15:42:32.235Z,0.50
2022-11-24T15:45:10.745Z,0.60
2022-11-24T15:47:37.689Z,0.50
2022-11-24T15:50:04.936Z,0.60
2022-11-24T15:52:34.230Z,0.50
2022-11-24T15:55:01.407Z,0.50
2022-11-24T15:57:28.634Z,0.60
2022-11-24T15:59:55.575Z,0.60
2022-11-24T16:02:22.535Z,0.60
2022-11-24T16:04:49.887Z,0.50
2022-11-24T16:07:16.977Z,0.70
2022-11-24T16:09:44.203Z,0.60
2022-11-24T16:12:11.137Z,0.60
2022-11-24T16:14:38.275Z,0.60
2022-11-24T16:17:05.446Z,0.60
2022-11-24T16:19:35.088Z,0.60
2022-11-24T16:22:06.311Z,0.60
2022-11-24T16:24:33.335Z,0.60
2022-11-24T16:27:01.479Z,0.60
2022-11-24T16:29:28.324Z,0.60
2022-11-24T16:31:55.345Z,0.60
2022-11-24T16:34:22.253Z,0.60
2022-11-24T16:36:49.380Z,0.60
2022-11-24T16:39:16.186Z,0.60
2022-11-24T16:41:43.009Z,0.60
2022-11-24T16:44:09.852Z,0.60
2022-11-24T16:46:36.709Z,0.60
2022-11-24T16:49:04.468Z,0.60
2022-11-24T16:51:34.790Z,0.60
2022-11-24T16:54:02.677Z,0.60
2022-11-24T16:56:30.196Z,0.60
2022-11-24T16:58:57.255Z,0.60
2022-11-24T17:01:25.949Z,0.60
2022-11-24T17:03:52.970Z,0.60
2022-11-24T17:06:20.171Z,0.60
2022-11-24T17:08:47.877Z,0.60
2022-11-24T17:11:19.948Z,0.70
2022-11-24T17:13:49.145Z,0.60
2022-11-24T17:16:21.674Z,0.60
2022-11-24T17:18:49.309Z,0.60
2022-11-24T17:21:21.996Z,0.60
2022-11-24T17:23:56.341Z,0.60
2022-11-24T17:26:23.736Z,0.60
2022-11-24T17:28:50.781Z,0.60
2022-11-24T17:31:22.562Z,0.60
2022-11-24T17:33:50.683Z,0.60
2022-11-24T17:36:17.941Z,0.60
2022-11-24T17:38:44.881Z,0.60
2022-11-24T17:41:11.875Z,0.60
2022-11-24T17:43:38.781Z,0.60
2022-11-24T17:46:07.073Z,0.70
2022-11-24T17:48:35.421Z,0.60
2022-11-24T17:51:08.251Z,0.60
2022-11-24T17:53:39.276Z,0.50
2022-11-24T17:56:07.316Z,0.60
2022-11-24T17:58:39.685Z,0.60
2022-11-24T18:01:08.889Z,0.60
2022-11-24T18:03:36.051Z,0.60
2022-11-24T18:06:14.559Z,0.60
2022-11-24T18:08:43.773Z,0.60
2022-11-24T18:11:13.523Z,0.60
2022-11-24T18:14:00.261Z,0.60
2022-11-24T18:16:30.218Z,0.60
2022-11-24T18:19:14.626Z,0.60
2022-11-24T18:21:43.730Z,0.60
2022-11-24T18:24:11.680Z,0.60
2022-11-24T18:26:42.306Z,0.60
2022-11-24T18:29:10.669Z,0.60
2022-11-24T18:31:38.245Z,0.60
2022-11-24T18:34:06.049Z,0.70
2022-11-24T18:36:33.802Z,0.60
2022-11-24T18:39:04.881Z,0.60
2022-11-24T18:41:32.015Z,0.60
2022-11-24T18:44:02.399Z,0.70
2022-11-24T18:46:29.565Z,0.60
2022-11-24T18:48:56.677Z,0.70
2022-11-24T18:51:23.899Z,0.70
2022-11-24T18:53:54.686Z,0.70
2022-11-24T18:56:21.938Z,0.80
2022-11-24T18:58:56.062Z,0.70
2022-11-24T19:01:26.780Z,0.70
2022-11-24T19:04:01.365Z,0.80
2022-11-24T19:06:36.441Z,0.80
2022-11-24T19:09:07.105Z,0.70
2022-11-24T19:11:39.397Z,0.60
2022-11-24T19:14:08.342Z,0.70
2022-11-24T19:16:38.066Z,0.70
2022-11-24T19:19:05.619Z,0.70
2022-11-24T19:21:35.725Z,0.80
2022-11-24T19:24:05.582Z,0.70
2022-11-24T19:26:35.083Z,0.60
2022-11-24T19:29:03.427Z,0.60
2022-11-24T19:31:30.546Z,0.60
2022-11-24T19:33:59.935Z,0.40
2022-11-24T19:36:27.544Z,0.30
2022-11-24T19:38:56.842Z,0.30
2022-11-24T19:41:27.938Z,0.30
2022-11-24T19:43:55.071Z,0.30
2022-11-24T19:46:26.291Z,0.40
2022-11-24T19:49:03.496Z,0.40
2022-11-24T19:51:35.032Z,0.30
2022-11-24T19:54:03.238Z,0.40
2022-11-24T19:56:32.524Z,0.50
2022-11-24T19:58:59.791Z,0.50
2022-11-24T20:01:32.260Z,0.50
2022-11-24T20:04:05.838Z,0.30
2022-11-24T20:06:38.595Z,0.30
2022-11-24T20:09:08.087Z,0.30
2022-11-24T20:11:35.528Z,0.30
2022-11-24T20:14:03.138Z,0.30
2022-11-24T20:16:32.181Z,0.30
2022-11-24T20:19:01.725Z,0.30
2022-11-24T20:21:32.923Z,0.30
2022-11-24T20:24:03.910Z,0.40
2022-11-24T20:26:34.347Z,0.30
2022-11-24T20:29:01.908Z,0.40
2022-11-24T20:31:34.735Z,0.40
2022-11-24T20:34:03.590Z,0.20
2022-11-24T20:36:32.653Z,0.10
2022-11-24T20:39:01.393Z,0.10
2022-11-24T20:41:32.035Z,0.30
2022-11-24T20:44:03.894Z,0.40
2022-11-24T20:46:33.330Z,0.40
2022-11-24T20:49:01.119Z,0.30
2022-11-24T20:51:31.089Z,0.30
2022-11-24T20:54:04.484Z,0.30
2022-11-24T20:56:37.762Z,0.40
2022-11-24T20:59:19.051Z,0.50
2022-11-24T21:01:50.527Z,0.50
2022-11-24T21:04:31.879Z,0.50
2022-11-24T21:07:07.954Z,0.60
2022-11-24T21:09:40.067Z,0.30
2022-11-24T21:12:13.358Z,0.10
2022-11-24T21:14:43.251Z,0.20
2022-11-24T21:17:10.802Z,0.40
2022-11-24T21:20:06.437Z,0.50
2022-11-24T21:22:40.290Z,0.50
2022-11-24T21:25:18.628Z,0.60
2022-11-24T21:27:48.070Z,0.60
2022-11-24T21:30:17.625Z,0.60
2022-11-24T21:32:44.732Z,0.60
2022-11-24T21:35:11.769Z,0.60
2022-11-24T21:37:41.721Z,0.60
2022-11-24T21:40:09.015Z,0.70
2022-11-24T21:42:44.501Z,0.70
2022-11-24T21:45:25.040Z,0.70
2022-11-24T21:48:10.155Z,0.70
2022-11-24T21:50:49.252Z,0.70
2022-11-24T21:53:43.959Z,0.80
2022-11-24T21:56:34.621Z,0.80
2022-11-24T21:59:04.765Z,0.70
2022-11-24T22:01:35.300Z,0.70
2022-11-24T22:04:02.285Z,0.70
2022-11-24T22:06:29.510Z,0.70
2022-11-24T22:08:56.497Z,0.70
2022-11-24T22:11:55.148Z,0.70
2022-11-24T22:14:22.198Z,0.70
2022-11-24T22:16:52.757Z,0.80
2022-11-24T22:19:25.072Z,0.80
2022-11-24T22:21:52.120Z,0.70
2022-11-24T22:24:21.819Z,0.70
2022-11-24T22:26:52.698Z,0.70
2022-11-24T22:29:19.974Z,0.70
2022-11-24T22:31:48.441Z,0.60
2022-11-24T22:34:19.881Z,0.60
2022-11-24T22:36:47.100Z,0.50
2022-11-24T22:39:14.477Z,0.50
2022-11-24T22:41:41.554Z,0.50
2022-11-24T22:44:08.680Z,0.60
2022-11-24T22:46:35.539Z,0.70
2022-11-24T22:49:02.639Z,0.80
2022-11-24T22:51:34.664Z,0.80
2022-11-24T22:54:03.693Z,0.70
2022-11-24T22:56:32.555Z,0.60
2022-11-24T22:59:04.742Z,0.70
2022-11-24T23:01:33.914Z,0.80
2022-11-24T23:04:01.836Z,0.90
2022-11-24T23:06:30.940Z,0.90
2022-11-24T23:13:04.890Z,0.90
2022-11-24T23:16:23.262Z,0.70
2022-11-24T23:19:03.474Z,0.60
2022-11-24T23:21:36.360Z,0.50
2022-11-24T23:24:08.485Z,0.50
2022-11-24T23:26:57.705Z,0.40
2022-11-24T23:29:33.937Z,0.50
2022-11-24T23:32:03.412Z,0.50
2022-11-24T23:39:40.973Z,0.40
2022-11-24T23:42:43.063Z,0.30
2022-11-24T23:55:16.165Z,0.10
2022-11-24T23:57:43.378Z,0.10
